createdAt,value
2023-05-24T00:00:38.310Z,43.38
2023-05-24T00:03:07.681Z,43.27
2023-05-24T00:05:38.648Z,43.52
2023-05-24T00:08:07.065Z,43.41
2023-05-24T00:10:35.407Z,43.44
2023-05-24T00:13:03.754Z,43.54
2023-05-24T00:15:32.056Z,43.71
2023-05-24T00:18:00.470Z,43.89
2023-05-24T00:20:28.841Z,43.82
2023-05-24T00:22:57.213Z,44.07
2023-05-24T00:25:25.628Z,44.20
2023-05-24T00:27:53.935Z,43.99
2023-05-24T00:30:22.274Z,44.27
2023-05-24T00:32:50.563Z,44.33
2023-05-24T00:35:18.894Z,44.49
2023-05-24T00:37:47.353Z,44.30
2023-05-24T00:40:15.747Z,44.42
2023-05-24T00:42:44.052Z,44.40
2023-05-24T00:45:12.563Z,44.51
2023-05-24T00:47:41.227Z,44.75
2023-05-24T00:50:13.867Z,44.85
2023-05-24T00:52:46.329Z,44.85
2023-05-24T00:55:15.030Z,44.97
2023-05-24T00:57:43.737Z,45.05
2023-05-24T01:00:12.647Z,45.24
2023-05-24T01:02:41.189Z,45.42
2023-05-24T01:05:10.075Z,45.31
2023-05-24T01:08:10.793Z,45.31
2023-05-24T01:10:47.657Z,45.26
2023-05-24T01:13:26.058Z,45.58
2023-05-24T01:16:06.710Z,45.69
2023-05-24T01:18:40.196Z,45.97
2023-05-24T01:21:15.283Z,46.06
2023-05-24T01:23:51.927Z,46.29
2023-05-24T01:26:27.677Z,46.18
2023-05-24T01:28:56.456Z,46.41
2023-05-24T01:31:25.750Z,46.50
2023-05-24T01:33:54.338Z,46.81
2023-05-24T01:36:22.765Z,46.93
2023-05-24T01:38:53.013Z,47.04
2023-05-24T01:41:24.225Z,47.14
2023-05-24T01:44:14.932Z,47.37
2023-05-24T01:46:43.300Z,47.58
2023-05-24T01:49:43.489Z,47.72
2023-05-24T01:52:20.762Z,47.76
2023-05-24T01:54:53.796Z,47.74
2023-05-24T01:57:23.600Z,47.75
2023-05-24T01:59:53.623Z,47.72
2023-05-24T02:02:22.315Z,47.89
2023-05-24T02:04:51.141Z,48.09
2023-05-24T02:07:20.176Z,48.04
2023-05-24T02:09:48.548Z,48.24
2023-05-24T02:12:16.867Z,48.32
2023-05-24T02:14:45.130Z,48.41
2023-05-24T02:17:13.547Z,48.78
2023-05-24T02:19:41.989Z,48.50
2023-05-24T02:22:10.396Z,48.75
2023-05-24T02:24:38.728Z,49.08
2023-05-24T02:27:07.594Z,48.83
2023-05-24T02:29:36.024Z,49.10
2023-05-24T02:32:04.275Z,49.16
2023-05-24T02:34:32.902Z,49.30
2023-05-24T02:37:01.164Z,49.47
2023-05-24T02:39:29.544Z,49.67
2023-05-24T02:41:57.861Z,49.77
2023-05-24T02:44:26.161Z,49.71
2023-05-24T02:46:54.494Z,49.93
2023-05-24T02:49:22.726Z,49.82
2023-05-24T02:51:51.331Z,50.07
2023-05-24T02:54:19.726Z,50.27
2023-05-24T02:56:48.768Z,50.26
2023-05-24T02:59:17.133Z,50.29
2023-05-24T03:01:45.580Z,50.37
2023-05-24T03:04:13.838Z,50.50
2023-05-24T03:06:42.076Z,50.75
2023-05-24T03:09:10.293Z,50.61
2023-05-24T03:11:38.547Z,50.72
2023-05-24T03:14:07.659Z,50.92
2023-05-24T03:16:35.988Z,51.04
2023-05-24T03:19:06.494Z,50.98
2023-05-24T03:21:35.966Z,51.04
2023-05-24T03:24:04.294Z,51.22
2023-05-24T03:26:32.532Z,51.24
2023-05-24T03:29:00.750Z,51.37
2023-05-24T03:31:28.995Z,51.33
2023-05-24T03:33:57.429Z,51.62
2023-05-24T03:36:27.162Z,51.54
2023-05-24T03:38:55.975Z,51.66
2023-05-24T03:41:24.246Z,51.81
2023-05-24T03:43:53.816Z,51.97
2023-05-24T03:46:22.179Z,52.00
2023-05-24T03:48:50.863Z,52.04
2023-05-24T03:51:19.162Z,52.08
2023-05-24T03:53:47.379Z,52.16
2023-05-24T03:56:15.607Z,52.31
2023-05-24T03:58:43.872Z,52.54
2023-05-24T04:01:25.347Z,52.62
2023-05-24T04:03:58.205Z,52.76
2023-05-24T04:06:30.018Z,52.72
2023-05-24T04:09:00.106Z,52.84
2023-05-24T04:11:29.334Z,52.93
2023-05-24T04:13:58.481Z,52.85
2023-05-24T04:16:27.346Z,52.94
2023-05-24T04:18:58.935Z,53.09
2023-05-24T04:21:27.254Z,53.24
2023-05-24T04:23:56.785Z,53.26
2023-05-24T04:26:25.019Z,53.46
2023-05-24T04:28:53.391Z,53.69
2023-05-24T04:31:22.725Z,53.60
2023-05-24T04:33:51.446Z,53.83
2023-05-24T04:36:20.293Z,53.79
2023-05-24T04:38:48.521Z,53.80
2023-05-24T04:41:16.956Z,54.05
2023-05-24T04:43:45.809Z,54.01
2023-05-24T04:46:14.558Z,54.09
2023-05-24T04:48:43.049Z,54.16
2023-05-24T04:51:11.365Z,54.39
2023-05-24T04:53:39.741Z,54.46
2023-05-24T04:56:08.071Z,54.28
2023-05-24T04:58:38.121Z,54.17
2023-05-24T05:01:07.627Z,54.71
2023-05-24T05:03:36.037Z,54.77
2023-05-24T05:06:04.859Z,54.72
2023-05-24T05:08:33.448Z,54.56
2023-05-24T05:11:02.055Z,54.78
2023-05-24T05:13:30.296Z,54.87
2023-05-24T05:15:58.492Z,54.92
2023-05-24T05:18:26.741Z,55.15
2023-05-24T05:20:55.154Z,55.23
2023-05-24T05:23:23.389Z,55.30
2023-05-24T05:25:52.077Z,55.18
2023-05-24T05:28:20.344Z,55.13
2023-05-24T05:30:48.778Z,55.52
2023-05-24T05:33:17.309Z,55.42
2023-05-24T05:35:45.609Z,55.74
2023-05-24T05:38:14.181Z,55.69
2023-05-24T05:40:42.671Z,55.63
2023-05-24T05:43:11.253Z,55.71
2023-05-24T05:45:39.688Z,55.82
2023-05-24T05:48:08.136Z,56.02
2023-05-24T05:50:36.549Z,55.86
2023-05-24T05:53:04.785Z,55.89
2023-05-24T05:55:33.021Z,55.97
2023-05-24T05:58:01.393Z,56.31
2023-05-24T06:00:29.658Z,56.18
2023-05-24T06:02:58.014Z,56.46
2023-05-24T06:05:26.537Z,56.35
2023-05-24T06:07:54.904Z,56.46
2023-05-24T06:10:23.109Z,56.77
2023-05-24T06:12:51.884Z,56.46
2023-05-24T06:15:23.453Z,56.39
2023-05-24T06:17:53.508Z,56.52
2023-05-24T06:20:21.866Z,56.61
2023-05-24T06:22:51.665Z,56.77
2023-05-24T06:25:21.651Z,56.65
2023-05-24T06:27:50.075Z,56.97
2023-05-24T06:30:19.026Z,57.33
2023-05-24T06:32:47.410Z,57.08
2023-05-24T06:35:15.626Z,57.39
2023-05-24T06:37:44.489Z,57.46
2023-05-24T06:40:13.833Z,57.25
2023-05-24T06:42:42.179Z,57.38
2023-05-24T06:45:10.837Z,57.63
2023-05-24T06:47:39.198Z,57.68
2023-05-24T06:50:08.234Z,57.76
2023-05-24T06:52:36.756Z,57.69
2023-05-24T06:55:05.574Z,57.89
2023-05-24T06:57:33.794Z,57.61
2023-05-24T07:00:02.463Z,57.88
2023-05-24T07:02:30.749Z,57.77
2023-05-24T07:04:59.123Z,57.92
2023-05-24T07:07:27.668Z,58.04
2023-05-24T07:09:56.273Z,58.20
2023-05-24T07:12:24.621Z,58.14
2023-05-24T07:14:53.223Z,58.18
2023-05-24T07:17:22.022Z,58.16
2023-05-24T07:19:50.382Z,58.31
2023-05-24T07:22:18.789Z,58.34
2023-05-24T07:24:47.131Z,58.39
2023-05-24T07:27:15.382Z,58.38
2023-05-24T07:29:44.728Z,58.38
2023-05-24T07:32:14.610Z,58.42
2023-05-24T07:34:42.901Z,58.77
2023-05-24T07:37:11.316Z,58.92
2023-05-24T07:39:39.951Z,58.93
2023-05-24T07:42:08.312Z,58.66
2023-05-24T07:44:36.950Z,59.11
2023-05-24T07:47:05.367Z,58.88
2023-05-24T07:49:33.618Z,58.86
2023-05-24T07:52:01.951Z,59.22
2023-05-24T07:54:30.226Z,58.91
2023-05-24T07:56:58.663Z,59.32
2023-05-24T07:59:27.160Z,59.23
2023-05-24T08:01:55.428Z,59.34
2023-05-24T08:04:24.734Z,59.64
2023-05-24T08:06:53.126Z,59.29
2023-05-24T08:09:21.450Z,59.66
2023-05-24T08:11:49.672Z,59.60
2023-05-24T08:14:17.926Z,59.44
2023-05-24T08:16:46.301Z,59.62
2023-05-24T08:19:14.883Z,59.32
2023-05-24T08:21:43.334Z,59.60
2023-05-24T08:24:11.677Z,59.77
2023-05-24T08:26:39.958Z,59.87
2023-05-24T08:29:08.694Z,59.69
2023-05-24T08:31:37.065Z,59.96
2023-05-24T08:34:06.154Z,60.22
2023-05-24T08:36:34.391Z,60.21
2023-05-24T08:39:02.624Z,60.21
2023-05-24T08:41:33.478Z,60.21
2023-05-24T08:44:03.305Z,60.08
2023-05-24T08:46:32.575Z,60.27
2023-05-24T08:49:02.419Z,60.13
2023-05-24T08:51:34.605Z,60.54
2023-05-24T08:54:03.297Z,60.27
2023-05-24T08:56:32.366Z,60.33
2023-05-24T08:59:01.026Z,60.71
2023-05-24T09:01:32.285Z,60.67
2023-05-24T09:04:04.010Z,60.48
2023-05-24T09:06:33.416Z,60.38
2023-05-24T09:09:04.623Z,60.36
2023-05-24T09:11:34.285Z,60.76
2023-05-24T09:14:03.916Z,60.50
2023-05-24T09:16:32.757Z,60.81
2023-05-24T09:19:01.004Z,60.62
2023-05-24T09:21:30.547Z,60.75
2023-05-24T09:23:59.590Z,60.95
2023-05-24T09:26:32.669Z,60.90
2023-05-24T09:29:00.979Z,60.86
2023-05-24T09:31:40.763Z,61.02
2023-05-24T09:34:16.058Z,61.14
2023-05-24T09:36:47.036Z,60.89
2023-05-24T09:39:15.216Z,61.40
2023-05-24T09:41:45.899Z,61.36
2023-05-24T09:44:17.617Z,61.25
2023-05-24T09:46:46.655Z,61.29
2023-05-24T09:49:15.286Z,61.58
2023-05-24T09:51:43.556Z,61.33
2023-05-24T09:54:13.668Z,61.72
2023-05-24T09:56:42.032Z,61.21
2023-05-24T09:59:10.739Z,61.53
2023-05-24T10:01:39.173Z,61.82
2023-05-24T10:04:10.253Z,61.43
2023-05-24T10:06:40.059Z,61.12
2023-05-24T10:09:10.299Z,61.39
2023-05-24T10:11:38.625Z,61.62
2023-05-24T10:14:08.295Z,61.00
2023-05-24T10:16:39.092Z,61.04
2023-05-24T10:19:08.134Z,61.38
2023-05-24T10:21:41.033Z,61.46
2023-05-24T10:24:12.529Z,61.42
2023-05-24T10:26:43.342Z,61.11
2023-05-24T10:29:18.829Z,61.36
2023-05-24T10:31:47.832Z,61.65
2023-05-24T10:34:16.573Z,61.56
2023-05-24T10:36:46.330Z,61.57
2023-05-24T10:39:14.767Z,61.46
2023-05-24T10:41:43.737Z,61.55
2023-05-24T10:44:14.178Z,62.00
2023-05-24T10:47:09.666Z,62.05
2023-05-24T10:49:40.535Z,61.84
2023-05-24T10:52:11.187Z,61.90
2023-05-24T10:54:44.771Z,62.46
2023-05-24T10:57:25.999Z,62.51
2023-05-24T10:59:58.043Z,62.30
2023-05-24T11:02:36.442Z,62.40
2023-05-24T11:05:07.227Z,62.37
2023-05-24T11:07:46.167Z,62.73
2023-05-24T11:10:32.159Z,62.69
2023-05-24T11:13:04.905Z,62.52
2023-05-24T11:15:33.154Z,62.61
2023-05-24T11:18:10.484Z,62.61
2023-05-24T11:20:39.487Z,63.16
2023-05-24T11:23:10.104Z,63.00
2023-05-24T11:25:39.557Z,63.04
2023-05-24T11:28:12.135Z,63.07
2023-05-24T11:30:47.779Z,62.67
2023-05-24T11:33:24.417Z,63.05
2023-05-24T11:35:53.865Z,62.98
2023-05-24T11:38:24.891Z,63.08
2023-05-24T11:40:54.120Z,63.22
2023-05-24T11:43:25.926Z,63.02
2023-05-24T11:45:54.466Z,62.88
2023-05-24T11:48:22.704Z,62.81
2023-05-24T11:50:51.020Z,62.80
2023-05-24T11:53:22.237Z,62.84
2023-05-24T11:55:50.729Z,62.89
2023-05-24T11:58:25.709Z,63.32
2023-05-24T12:00:54.062Z,63.45
2023-05-24T12:03:22.674Z,62.81
2023-05-24T12:05:50.986Z,62.86
2023-05-24T12:08:19.277Z,62.79
2023-05-24T12:10:49.934Z,63.18
2023-05-24T12:13:27.973Z,63.22
2023-05-24T12:15:57.317Z,62.96
2023-05-24T12:18:27.345Z,62.88
2023-05-24T12:20:56.085Z,63.06
2023-05-24T12:23:29.400Z,62.71
2023-05-24T12:26:01.790Z,62.85
2023-05-24T12:28:39.445Z,62.89
2023-05-24T12:31:08.042Z,63.05
2023-05-24T12:33:36.693Z,62.78
2023-05-24T12:36:06.104Z,63.04
2023-05-24T12:38:34.432Z,63.04
2023-05-24T12:43:33.737Z,62.85
2023-05-24T12:46:02.536Z,62.77
2023-05-24T12:48:30.792Z,62.35
2023-05-24T12:50:59.126Z,62.18
2023-05-24T12:53:27.746Z,62.00
2023-05-24T12:55:56.965Z,61.70
2023-05-24T12:58:25.471Z,61.85
2023-05-24T13:00:53.853Z,62.04
2023-05-24T13:03:22.225Z,62.11
2023-05-24T13:05:50.669Z,61.92
2023-05-24T13:08:19.173Z,62.08
2023-05-24T13:10:47.634Z,61.78
2023-05-24T13:13:15.971Z,62.30
2023-05-24T13:15:45.456Z,62.16
2023-05-24T13:18:14.037Z,62.02
2023-05-24T13:20:42.569Z,62.09
2023-05-24T13:23:11.158Z,62.01
2023-05-24T13:25:39.357Z,62.26
2023-05-24T13:28:07.921Z,62.37
2023-05-24T13:30:36.232Z,62.21
2023-05-24T13:33:04.574Z,62.15
2023-05-24T13:35:33.053Z,62.08
2023-05-24T13:38:01.323Z,62.00
2023-05-24T13:40:29.679Z,61.96
2023-05-24T13:42:58.543Z,61.96
2023-05-24T13:45:27.167Z,61.92
2023-05-24T13:47:59.171Z,61.32
2023-05-24T13:50:27.748Z,61.59
2023-05-24T13:52:56.970Z,61.06
2023-05-24T13:55:25.943Z,61.51
2023-05-24T13:57:56.248Z,61.29
2023-05-24T14:00:25.064Z,61.27
2023-05-24T14:02:53.843Z,60.93
2023-05-24T14:05:27.362Z,61.18
2023-05-24T14:07:57.463Z,60.78
2023-05-24T14:10:26.092Z,61.06
2023-05-24T14:13:13.195Z,60.87
2023-05-24T14:15:43.223Z,60.51
2023-05-24T14:18:12.022Z,60.72
2023-05-24T14:20:41.653Z,60.63
2023-05-24T14:23:10.731Z,60.94
2023-05-24T14:25:39.160Z,60.60
2023-05-24T14:28:09.272Z,60.63
2023-05-24T14:30:38.634Z,60.38
2023-05-24T14:33:12.008Z,60.07
2023-05-24T14:35:40.754Z,60.20
2023-05-24T14:38:10.977Z,60.25
2023-05-24T14:40:41.574Z,59.72
2023-05-24T14:43:11.325Z,59.86
2023-05-24T14:45:44.532Z,59.72
2023-05-24T14:48:13.314Z,59.59
2023-05-24T14:50:42.289Z,59.71
2023-05-24T14:53:14.642Z,59.67
2023-05-24T14:55:44.507Z,59.62
2023-05-24T14:58:13.481Z,59.62
2023-05-24T15:00:43.515Z,59.29
2023-05-24T15:03:13.377Z,59.34
2023-05-24T15:05:43.441Z,59.08
2023-05-24T15:08:12.203Z,58.97
2023-05-24T15:10:41.143Z,59.34
2023-05-24T15:13:09.616Z,59.11
2023-05-24T15:15:37.900Z,58.96
2023-05-24T15:18:06.670Z,58.87
2023-05-24T15:20:36.020Z,58.60
2023-05-24T15:23:04.685Z,58.47
2023-05-24T15:25:32.947Z,58.47
2023-05-24T15:28:01.356Z,58.44
2023-05-24T15:30:29.679Z,58.17
2023-05-24T15:32:59.805Z,58.11
2023-05-24T15:35:28.518Z,57.95
2023-05-24T15:37:56.776Z,57.69
2023-05-24T15:40:25.247Z,57.86
2023-05-24T15:42:53.861Z,57.94
2023-05-24T15:45:22.268Z,57.78
2023-05-24T15:47:50.737Z,57.75
2023-05-24T15:50:25.878Z,57.14
2023-05-24T15:53:00.457Z,57.41
2023-05-24T15:55:28.760Z,57.43
2023-05-24T15:57:59.255Z,57.44
2023-05-24T16:00:27.922Z,57.17
2023-05-24T16:02:57.760Z,57.13
2023-05-24T16:05:27.739Z,57.11
2023-05-24T16:07:56.279Z,56.96
2023-05-24T16:10:24.619Z,56.76
2023-05-24T16:12:52.866Z,56.91
2023-05-24T16:15:21.080Z,56.82
2023-05-24T16:17:49.541Z,56.46
2023-05-24T16:20:17.865Z,56.40
2023-05-24T16:22:52.477Z,56.25
2023-05-24T16:25:20.323Z,56.01
2023-05-24T16:27:48.619Z,55.86
2023-05-24T16:30:16.932Z,55.54
2023-05-24T16:32:46.193Z,55.83
2023-05-24T16:35:14.645Z,55.54
2023-05-24T16:37:42.961Z,55.27
2023-05-24T16:40:11.989Z,55.11
2023-05-24T16:42:40.221Z,55.08
2023-05-24T16:45:08.940Z,54.96
2023-05-24T16:47:37.525Z,54.90
2023-05-24T16:50:06.428Z,54.75
2023-05-24T16:52:34.685Z,54.70
2023-05-24T16:55:02.948Z,54.41
2023-05-24T16:57:31.204Z,54.38
2023-05-24T16:59:59.504Z,54.29
2023-05-24T17:02:28.172Z,53.97
2023-05-24T17:04:56.447Z,53.77
2023-05-24T17:07:24.775Z,53.54
2023-05-24T17:09:53.250Z,53.48
2023-05-24T17:12:24.793Z,52.97
2023-05-24T17:14:53.602Z,53.24
2023-05-24T17:17:21.960Z,53.16
2023-05-24T17:19:50.270Z,53.08
2023-05-24T17:22:18.592Z,53.11
2023-05-24T17:24:47.352Z,53.40
2023-05-24T17:27:16.446Z,53.31
2023-05-24T17:29:48.136Z,53.59
2023-05-24T17:32:16.380Z,53.76
2023-05-24T17:34:44.592Z,53.36
2023-05-24T17:37:12.832Z,53.55
2023-05-24T17:39:41.155Z,53.36
2023-05-24T17:42:09.644Z,53.25
2023-05-24T17:44:37.885Z,52.97
2023-05-24T17:47:06.479Z,52.80
2023-05-24T17:49:34.719Z,53.00
2023-05-24T17:52:02.949Z,52.72
2023-05-24T17:54:31.386Z,52.27
2023-05-24T17:56:59.609Z,51.88
2023-05-24T17:59:28.157Z,51.78
2023-05-24T18:01:56.413Z,51.59
2023-05-24T18:04:24.661Z,51.00
2023-05-24T18:06:52.892Z,51.39
2023-05-24T18:09:22.358Z,51.20
2023-05-24T18:11:50.690Z,51.10
2023-05-24T18:14:19.267Z,50.77
2023-05-24T18:16:47.615Z,51.01
2023-05-24T18:19:15.874Z,51.03
2023-05-24T18:21:44.147Z,50.81
2023-05-24T18:24:12.346Z,50.80
2023-05-24T18:26:40.570Z,50.33
2023-05-24T18:29:08.837Z,49.77
2023-05-24T18:31:37.393Z,49.27
2023-05-24T18:34:05.761Z,49.61
2023-05-24T18:36:34.148Z,49.72
2023-05-24T18:39:02.394Z,49.87
2023-05-24T18:41:30.769Z,49.81
2023-05-24T18:43:59.034Z,49.88
2023-05-24T18:46:28.605Z,49.87
2023-05-24T18:48:59.444Z,49.27
2023-05-24T18:51:27.959Z,49.17
2023-05-24T18:53:56.234Z,48.96
2023-05-24T18:56:25.118Z,48.83
2023-05-24T18:58:55.071Z,48.72
2023-05-24T19:01:23.411Z,48.26
2023-05-24T19:03:51.886Z,48.45
2023-05-24T19:06:20.142Z,48.44
2023-05-24T19:08:48.574Z,47.95
2023-05-24T19:11:16.995Z,47.78
2023-05-24T19:13:45.232Z,47.79
2023-05-24T19:16:18.149Z,47.29
2023-05-24T19:18:47.287Z,47.30
2023-05-24T19:21:15.799Z,47.31
2023-05-24T19:23:44.144Z,47.09
2023-05-24T19:26:12.721Z,47.12
2023-05-24T19:28:43.050Z,46.61
2023-05-24T19:31:11.476Z,46.15
2023-05-24T19:33:48.735Z,45.98
2023-05-24T19:36:27.530Z,45.91
2023-05-24T19:38:55.776Z,45.78
2023-05-24T19:41:24.071Z,45.36
2023-05-24T19:43:53.529Z,45.11
2023-05-24T19:46:24.452Z,44.78
2023-05-24T19:48:52.782Z,44.72
2023-05-24T19:51:21.225Z,44.79
2023-05-24T19:53:49.529Z,44.33
2023-05-24T19:56:17.831Z,44.06
2023-05-24T19:58:46.102Z,44.30
2023-05-24T20:01:14.449Z,43.92
2023-05-24T20:03:48.978Z,44.09
2023-05-24T20:06:17.752Z,43.92
2023-05-24T20:08:47.543Z,43.53
2023-05-24T20:11:15.866Z,43.27
2023-05-24T20:13:44.125Z,42.84
2023-05-24T20:16:12.425Z,43.08
2023-05-24T20:18:40.731Z,42.81
2023-05-24T20:21:08.936Z,42.65
2023-05-24T20:23:37.217Z,42.17
2023-05-24T20:26:05.739Z,41.67
2023-05-24T20:28:34.088Z,42.19
2023-05-24T20:31:02.604Z,42.15
2023-05-24T20:33:30.920Z,42.21
2023-05-24T20:35:59.693Z,41.67
2023-05-24T20:38:28.279Z,41.31
2023-05-24T20:40:56.556Z,41.56
2023-05-24T20:43:24.800Z,40.81
2023-05-24T20:45:53.239Z,40.68
2023-05-24T20:48:21.934Z,40.72
2023-05-24T20:50:50.220Z,40.42
2023-05-24T20:53:19.216Z,40.04
2023-05-24T20:55:47.501Z,40.23
2023-05-24T20:58:17.908Z,40.29
2023-05-24T21:00:46.437Z,40.02
2023-05-24T21:03:14.858Z,39.46
2023-05-24T21:05:43.529Z,39.55
2023-05-24T21:08:11.997Z,39.57
2023-05-24T21:10:40.307Z,39.09
2023-05-24T21:13:08.697Z,39.13
2023-05-24T21:15:36.942Z,38.75
2023-05-24T21:18:05.514Z,38.87
2023-05-24T21:20:33.935Z,38.63
2023-05-24T21:23:02.278Z,38.60
2023-05-24T21:25:30.543Z,38.41
2023-05-24T21:27:58.822Z,38.24
2023-05-24T21:30:27.534Z,38.19
2023-05-24T21:32:55.831Z,37.92
2023-05-24T21:35:24.108Z,37.79
2023-05-24T21:37:53.401Z,37.78
2023-05-24T21:40:21.743Z,37.41
2023-05-24T21:42:49.963Z,37.74
2023-05-24T21:45:18.296Z,37.57
2023-05-24T21:47:46.609Z,37.65
2023-05-24T21:50:15.009Z,37.32
2023-05-24T21:52:43.442Z,37.35
2023-05-24T21:55:11.731Z,37.04
2023-05-24T21:57:40.128Z,37.00
2023-05-24T22:00:09.734Z,36.91
2023-05-24T22:02:38.419Z,37.02
2023-05-24T22:05:07.137Z,36.58
2023-05-24T22:07:35.472Z,36.58
2023-05-24T22:10:04.281Z,36.29
2023-05-24T22:12:32.531Z,36.81
2023-05-24T22:15:02.631Z,36.87
2023-05-24T22:17:33.473Z,36.58
2023-05-24T22:20:07.682Z,36.77
2023-05-24T22:22:37.302Z,36.21
2023-05-24T22:25:05.855Z,36.64
2023-05-24T22:27:36.703Z,36.68
2023-05-24T22:30:05.105Z,36.75
2023-05-24T22:32:33.405Z,36.81
2023-05-24T22:35:01.731Z,36.47
2023-05-24T22:37:29.976Z,36.49
2023-05-24T22:39:58.289Z,36.62
2023-05-24T22:42:26.564Z,36.64
2023-05-24T22:44:54.864Z,36.79
2023-05-24T22:47:24.755Z,36.92
2023-05-24T22:49:54.830Z,36.83
2023-05-24T22:52:25.414Z,36.81
2023-05-24T22:54:53.849Z,36.71
2023-05-24T22:57:23.418Z,37.12
2023-05-24T22:59:52.010Z,37.36
2023-05-24T23:02:20.421Z,37.98
2023-05-24T23:04:49.190Z,37.99
2023-05-24T23:07:17.583Z,38.15
2023-05-24T23:09:45.935Z,37.88
2023-05-24T23:12:15.009Z,38.41
2023-05-24T23:14:47.155Z,38.56
2023-05-24T23:17:15.756Z,38.58
2023-05-24T23:19:44.629Z,38.80
2023-05-24T23:22:14.203Z,39.00
2023-05-24T23:24:43.208Z,39.47
2023-05-24T23:27:12.141Z,39.39
2023-05-24T23:29:40.445Z,39.27
2023-05-24T23:32:10.116Z,39.75
2023-05-24T23:34:38.774Z,39.99
2023-05-24T23:37:08.643Z,40.05
2023-05-24T23:39:36.951Z,40.53
2023-05-24T23:42:05.525Z,40.87
2023-05-24T23:44:33.905Z,40.62
2023-05-24T23:47:03.054Z,40.92
2023-05-24T23:49:31.569Z,40.93
2023-05-24T23:51:59.967Z,40.92
2023-05-24T23:54:28.631Z,41.49
2023-05-24T23:56:56.968Z,41.71
2023-05-24T23:59:25.319Z,41.50
